Wetterdaten: Woche 08.12.08 - 14.12.08 (KW50)
Datum Zeit Temperatur Luftfeuchte Luftdruck Niederschlag Windrichtung Wind
08.12.2008 00:00 0,9 C 97 % 1028,9 hPa 0,0 l/m N 0,1 km/h (0 Bft)
08.12.2008 01:00 0,8 C 96 % 1028,6 hPa 0,0 l/m N 0,1 km/h (0 Bft)
08.12.2008 02:00 -0,1 C 94 % 1028,7 hPa 0,0 l/m N 0,7 km/h (0 Bft)
08.12.2008 03:00 -1,0 C 95 % 1028,9 hPa 0,0 l/m W-NW 1,9 km/h (1 Bft)
08.12.2008 04:00 -1,1 C 97 % 1028,8 hPa 0,0 l/m N 0,5 km/h (0 Bft)
08.12.2008 05:00 -1,4 C 97 % 1028,8 hPa 0,0 l/m N-NW 2,4 km/h (1 Bft)
08.12.2008 06:00 -1,7 C 97 % 1028,7 hPa 0,0 l/m N 1,3 km/h (1 Bft)
08.12.2008 07:00 -2,1 C 97 % 1028,6 hPa 0,0 l/m N-NW 2,5 km/h (1 Bft)
08.12.2008 08:00 -2,4 C 98 % 1028,7 hPa 0,0 l/m N-NW 1,6 km/h (1 Bft)
08.12.2008 09:00 -2,6 C 98 % 1028,8 hPa 0,0 l/m N-NW 3,1 km/h (1 Bft)
08.12.2008 10:00 -2,3 C 98 % 1028,8 hPa 0,0 l/m N 2,4 km/h (1 Bft)
08.12.2008 11:00 -1,8 C 98 % 1028,4 hPa 0,0 l/m N 2,3 km/h (1 Bft)
08.12.2008 12:00 -1,0 C 98 % 1027,6 hPa 0,0 l/m NO 2,5 km/h (1 Bft)
08.12.2008 13:00 -0,5 C 98 % 1026,7 hPa 0,0 l/m N 3,2 km/h (1 Bft)
08.12.2008 14:00 -0,2 C 97 % 1025,8 hPa 0,0 l/m O-NO 2,9 km/h (1 Bft)
08.12.2008 15:00 -0,0 C 96 % 1025,1 hPa 0,0 l/m O-NO 3,9 km/h (1 Bft)
08.12.2008 16:00 -0,7 C 95 % 1025,0 hPa 0,0 l/m N 5,2 km/h (1 Bft)
08.12.2008 17:00 -1,5 C 97 % 1025,0 hPa 0,0 l/m NO 3,3 km/h (1 Bft)
08.12.2008 18:00 -1,7 C 97 % 1024,8 hPa 0,0 l/m NO 2,9 km/h (1 Bft)
08.12.2008 19:00 -2,0 C 97 % 1024,5 hPa 0,0 l/m N 2,0 km/h (1 Bft)
08.12.2008 20:00 -2,5 C 97 % 1024,5 hPa 0,0 l/m NO 2,1 km/h (1 Bft)
08.12.2008 21:00 -3,0 C 97 % 1024,2 hPa 0,0 l/m NO 2,4 km/h (1 Bft)
08.12.2008 22:00 -3,0 C 98 % 1023,8 hPa 0,0 l/m SW 6,5 km/h (2 Bft)
08.12.2008 23:00 -2,5 C 98 % 1023,4 hPa 0,0 l/m SW 9,7 km/h (2 Bft)
09.12.2008 00:00 -2,4 C 98 % 1022,9 hPa 0,0 l/m SW 9,7 km/h (2 Bft)
09.12.2008 01:00 -2,2 C 98 % 1022,4 hPa 0,0 l/m W-SW 8,6 km/h (2 Bft)
09.12.2008 02:00 -2,1 C 98 % 1022,0 hPa 0,0 l/m W-SW 9,8 km/h (2 Bft)
09.12.2008 03:00 -2,1 C 98 % 1021,5 hPa 0,0 l/m SW 8,0 km/h (2 Bft)
09.12.2008 04:00 -2,2 C 97 % 1021,0 hPa 0,0 l/m SW 8,4 km/h (2 Bft)
09.12.2008 05:00 -2,3 C 97 % 1020,8 hPa 0,0 l/m W-SW 7,1 km/h (2 Bft)
09.12.2008 06:00 -2,4 C 97 % 1020,5 hPa 0,0 l/m W-SW 8,2 km/h (2 Bft)
09.12.2008 07:00 -2,7 C 97 % 1020,5 hPa 0,0 l/m W-SW 14,0 km/h (3 Bft)
09.12.2008 08:00 -2,5 C 97 % 1020,4 hPa 0,0 l/m SW 13,3 km/h (3 Bft)
09.12.2008 09:00 -2,1 C 98 % 1020,2 hPa 0,0 l/m SW 14,9 km/h (3 Bft)
09.12.2008 10:00 -1,8 C 98 % 1019,6 hPa 0,0 l/m S-SW 19,2 km/h (3 Bft)
09.12.2008 11:00 -1,3 C 97 % 1019,0 hPa 0,0 l/m SW 11,6 km/h (2 Bft)
09.12.2008 12:00 -0,8 C 96 % 1018,3 hPa 0,0 l/m S-SW 11,4 km/h (2 Bft)
09.12.2008 13:00 -0,7 C 96 % 1017,5 hPa 0,0 l/m S 12,0 km/h (2 Bft)
09.12.2008 14:00 -0,4 C 95 % 1017,0 hPa 0,0 l/m S-SW 10,2 km/h (2 Bft)
09.12.2008 15:00 -0,4 C 95 % 1016,5 hPa 0,0 l/m SO 7,0 km/h (2 Bft)
09.12.2008 16:00 -0,3 C 95 % 1016,2 hPa 0,0 l/m SO 6,5 km/h (2 Bft)
09.12.2008 17:00 -0,4 C 95 % 1015,4 hPa 0,0 l/m SO 6,3 km/h (2 Bft)
09.12.2008 18:00 -0,6 C 95 % 1014,9 hPa 0,0 l/m O-SO 3,9 km/h (1 Bft)
09.12.2008 19:00 -0,5 C 95 % 1014,4 hPa 0,0 l/m N 0,8 km/h (0 Bft)
09.12.2008 20:00 -0,7 C 96 % 1014,1 hPa 0,0 l/m NW 2,5 km/h (1 Bft)
09.12.2008 21:00 0,3 C 96 % 1014,1 hPa 0,2 l/m W-NW 22,7 km/h (4 Bft)
09.12.2008 22:00 1,2 C 96 % 1014,1 hPa 2,6 l/m NW 17,0 km/h (3 Bft)
09.12.2008 23:00 1,1 C 97 % 1013,7 hPa 0,0 l/m S 5,5 km/h (1 Bft)
10.12.2008 00:00 0,7 C 97 % 1013,7 hPa 0,0 l/m S-SW 12,3 km/h (3 Bft)
10.12.2008 01:00 0,5 C 98 % 1013,6 hPa 0,0 l/m SW 11,0 km/h (2 Bft)
10.12.2008 02:00 0,7 C 98 % 1013,5 hPa 0,0 l/m SW 8,6 km/h (2 Bft)
10.12.2008 03:00 0,7 C 98 % 1013,3 hPa 0,0 l/m SW 2,4 km/h (1 Bft)
10.12.2008 04:00 0,6 C 98 % 1012,9 hPa 0,4 l/m N 0,9 km/h (0 Bft)
10.12.2008 05:00 0,5 C 98 % 1012,6 hPa 0,4 l/m N 0,0 km/h (0 Bft)
10.12.2008 06:00 0,4 C 98 % 1012,6 hPa 0,6 l/m N-NO 3,2 km/h (1 Bft)
10.12.2008 07:00 0,3 C 98 % 1012,7 hPa 0,6 l/m NO 6,5 km/h (2 Bft)
10.12.2008 08:00 0,3 C 97 % 1012,7 hPa 0,6 l/m NO 4,9 km/h (1 Bft)
10.12.2008 09:00 0,3 C 97 % 1012,7 hPa 0,8 l/m NO 5,1 km/h (1 Bft)
10.12.2008 10:00 0,7 C 96 % 1012,4 hPa 0,4 l/m NO 4,0 km/h (1 Bft)
10.12.2008 11:00 0,7 C 95 % 1011,7 hPa 0,4 l/m NO 8,6 km/h (2 Bft)
10.12.2008 12:00 0,8 C 94 % 1011,0 hPa 0,2 l/m O-NO 11,2 km/h (2 Bft)
10.12.2008 13:00 0,7 C 94 % 1010,1 hPa 0,0 l/m NO 11,3 km/h (2 Bft)
10.12.2008 14:00 0,4 C 94 % 1010,0 hPa 0,0 l/m NO 10,1 km/h (2 Bft)
10.12.2008 15:00 0,1 C 95 % 1009,7 hPa 0,2 l/m N-NO 10,3 km/h (2 Bft)
10.12.2008 16:00 -0,1 C 96 % 1009,7 hPa 0,2 l/m N-NO 8,7 km/h (2 Bft)
10.12.2008 17:00 -0,3 C 97 % 1009,8 hPa 1,0 l/m N-NO 7,9 km/h (2 Bft)
10.12.2008 18:00 -0,4 C 97 % 1009,6 hPa 0,6 l/m N-NO 7,1 km/h (2 Bft)
10.12.2008 19:00 -0,5 C 97 % 1009,6 hPa 0,8 l/m N-NO 7,1 km/h (2 Bft)
10.12.2008 20:00 -0,7 C 97 % 1009,6 hPa 0,6 l/m N-NO 6,9 km/h (2 Bft)
10.12.2008 21:00 -0,7 C 97 % 1009,5 hPa 0,4 l/m N-NO 7,8 km/h (2 Bft)
10.12.2008 22:00 -0,8 C 97 % 1009,6 hPa 0,4 l/m N-NO 6,3 km/h (2 Bft)
10.12.2008 23:00 -0,9 C 97 % 1009,7 hPa 0,2 l/m N-NO 5,6 km/h (1 Bft)
11.12.2008 00:00 -1,1 C 97 % 1009,8 hPa 0,0 l/m N-NO 3,9 km/h (1 Bft)
11.12.2008 01:00 -1,1 C 97 % 1009,7 hPa 0,0 l/m N-NO 3,6 km/h (1 Bft)
11.12.2008 02:00 -1,2 C 97 % 1009,7 hPa 0,0 l/m N 1,3 km/h (1 Bft)
11.12.2008 03:00 -1,2 C 97 % 1009,4 hPa 0,0 l/m N-NO 3,1 km/h (1 Bft)
11.12.2008 04:00 -1,2 C 97 % 1008,9 hPa 0,0 l/m N-NO 2,1 km/h (1 Bft)
11.12.2008 05:00 -1,2 C 97 % 1008,8 hPa 0,0 l/m N-NO 1,6 km/h (1 Bft)
11.12.2008 06:00 -1,3 C 97 % 1009,0 hPa 0,0 l/m N 1,1 km/h (0 Bft)
11.12.2008 07:00 -1,2 C 97 % 1009,2 hPa 0,0 l/m N-NO 3,3 km/h (1 Bft)
11.12.2008 08:00 -1,2 C 97 % 1009,5 hPa 0,0 l/m N 3,2 km/h (1 Bft)
11.12.2008 09:00 -0,9 C 97 % 1010,1 hPa 0,0 l/m N 2,4 km/h (1 Bft)
11.12.2008 10:00 -0,2 C 96 % 1010,1 hPa 0,0 l/m N 0,0 km/h (0 Bft)
11.12.2008 11:00 0,1 C 94 % 1010,0 hPa 0,0 l/m N 0,0 km/h (0 Bft)
11.12.2008 12:00 0,3 C 94 % 1010,3 hPa 0,0 l/m N-NW 1,5 km/h (1 Bft)
11.12.2008 13:00 0,4 C 93 % 1010,4 hPa 0,0 l/m N-NW 2,5 km/h (1 Bft)
11.12.2008 14:00 0,3 C 93 % 1010,3 hPa 0,0 l/m N 0,7 km/h (0 Bft)
11.12.2008 15:00 0,2 C 94 % 1010,3 hPa 0,0 l/m N 1,2 km/h (1 Bft)
11.12.2008 16:00 -0,2 C 95 % 1010,7 hPa 0,0 l/m N-NW 5,9 km/h (2 Bft)
11.12.2008 17:00 -0,5 C 96 % 1011,0 hPa 0,0 l/m N-NW 5,9 km/h (2 Bft)
11.12.2008 18:00 -0,6 C 96 % 1011,2 hPa 0,0 l/m N-NW 5,5 km/h (1 Bft)
11.12.2008 19:00 -0,7 C 96 % 1011,6 hPa 0,0 l/m NW 5,5 km/h (1 Bft)
11.12.2008 20:00 -0,9 C 96 % 1011,8 hPa 0,0 l/m NW 6,7 km/h (2 Bft)
11.12.2008 21:00 -1,0 C 96 % 1011,9 hPa 0,6 l/m N-NW 2,7 km/h (1 Bft)
11.12.2008 22:00 -1,0 C 97 % 1012,5 hPa 0,6 l/m N 0,0 km/h (0 Bft)
11.12.2008 23:00 -1,0 C 97 % 1012,9 hPa 0,6 l/m N 0,0 km/h (0 Bft)
12.12.2008 00:00 -1,1 C 97 % 1013,2 hPa 0,6 l/m N 0,0 km/h (0 Bft)
12.12.2008 01:00 -1,1 C 97 % 1013,5 hPa 0,8 l/m N 0,0 km/h (0 Bft)
12.12.2008 02:00 -1,1 C 97 % 1014,2 hPa 0,4 l/m N 0,0 km/h (0 Bft)
12.12.2008 03:00 -1,2 C 97 % 1014,6 hPa 0,4 l/m N 0,0 km/h (0 Bft)
12.12.2008 04:00 -1,2 C 97 % 1014,9 hPa 0,6 l/m N 0,0 km/h (0 Bft)
12.12.2008 05:00 -1,3 C 97 % 1015,4 hPa 0,2 l/m N 0,0 km/h (0 Bft)
12.12.2008 06:00 -1,4 C 97 % 1015,9 hPa 0,4 l/m N 0,0 km/h (0 Bft)
12.12.2008 07:00 -1,5 C 97 % 1016,5 hPa 0,0 l/m N 0,0 km/h (0 Bft)
12.12.2008 08:00 -1,7 C 96 % 1017,0 hPa 0,0 l/m N 0,0 km/h (0 Bft)
12.12.2008 09:00 -1,8 C 96 % 1017,4 hPa 0,0 l/m N 0,0 km/h (0 Bft)
12.12.2008 10:00 -1,2 C 96 % 1017,9 hPa 0,0 l/m N 0,0 km/h (0 Bft)
12.12.2008 11:00 0,3 C 92 % 1017,9 hPa 0,0 l/m N-NW 2,8 km/h (1 Bft)
12.12.2008 12:00 0,3 C 91 % 1018,0 hPa 0,0 l/m NO 7,1 km/h (2 Bft)
12.12.2008 13:00 -0,3 C 90 % 1018,1 hPa 0,0 l/m NO 9,0 km/h (2 Bft)
12.12.2008 14:00 -0,4 C 91 % 1018,1 hPa 0,0 l/m NO 7,6 km/h (2 Bft)
12.12.2008 15:00 -0,4 C 92 % 1018,4 hPa 0,0 l/m NO 7,2 km/h (2 Bft)
12.12.2008 16:00 -0,8 C 94 % 1018,8 hPa 0,0 l/m NO 5,1 km/h (1 Bft)
12.12.2008 17:00 -1,2 C 95 % 1018,9 hPa 0,0 l/m NO 5,2 km/h (1 Bft)
12.12.2008 18:00 -1,3 C 95 % 1018,7 hPa 0,0 l/m NO 5,7 km/h (1 Bft)
12.12.2008 19:00 -1,5 C 95 % 1018,2 hPa 0,0 l/m NO 7,2 km/h (2 Bft)
12.12.2008 20:00 -1,7 C 96 % 1018,0 hPa 0,0 l/m NO 8,2 km/h (2 Bft)
12.12.2008 21:00 -1,8 C 95 % 1017,5 hPa 0,2 l/m NO 8,6 km/h (2 Bft)
12.12.2008 22:00 -1,9 C 95 % 1017,2 hPa 0,0 l/m O-NO 8,3 km/h (2 Bft)
12.12.2008 23:00 -1,8 C 96 % 1016,5 hPa 0,0 l/m O-NO 8,6 km/h (2 Bft)
13.12.2008 00:00 -1,8 C 96 % 1015,8 hPa 0,0 l/m NO 6,7 km/h (2 Bft)
13.12.2008 01:00 -1,8 C 95 % 1015,1 hPa 0,0 l/m NO 8,5 km/h (2 Bft)
13.12.2008 02:00 -1,8 C 95 % 1014,7 hPa 0,0 l/m NO 6,8 km/h (2 Bft)
13.12.2008 03:00 -1,8 C 95 % 1013,9 hPa 0,0 l/m N-NO 5,6 km/h (1 Bft)
13.12.2008 04:00 -1,9 C 95 % 1013,0 hPa 0,0 l/m NO 6,7 km/h (2 Bft)
13.12.2008 05:00 -1,9 C 95 % 1012,2 hPa 0,0 l/m O-NO 5,3 km/h (1 Bft)
13.12.2008 06:00 -1,9 C 95 % 1011,3 hPa 0,0 l/m NO 7,4 km/h (2 Bft)
13.12.2008 07:00 -1,9 C 95 % 1010,9 hPa 0,0 l/m O-NO 3,7 km/h (1 Bft)
13.12.2008 08:00 -1,9 C 95 % 1010,3 hPa 0,0 l/m O-SO 3,1 km/h (1 Bft)
13.12.2008 09:00 -1,7 C 95 % 1009,4 hPa 0,0 l/m O 2,8 km/h (1 Bft)
13.12.2008 10:00 -1,1 C 93 % 1008,8 hPa 0,0 l/m O 2,1 km/h (1 Bft)
13.12.2008 11:00 -0,4 C 91 % 1007,9 hPa 0,0 l/m N 1,7 km/h (1 Bft)
13.12.2008 12:00 0,1 C 90 % 1006,6 hPa 0,0 l/m O-SO 3,6 km/h (1 Bft)
13.12.2008 13:00 -0,1 C 91 % 1005,7 hPa 0,0 l/m N 2,4 km/h (1 Bft)
13.12.2008 14:00 0,1 C 90 % 1004,9 hPa 0,0 l/m S-SW 3,6 km/h (1 Bft)
13.12.2008 15:00 0,1 C 90 % 1004,5 hPa 0,0 l/m O-SO 3,5 km/h (1 Bft)
13.12.2008 16:00 -0,4 C 90 % 1004,5 hPa 0,0 l/m O-SO 2,1 km/h (1 Bft)
13.12.2008 17:00 -1,7 C 90 % 1004,1 hPa 0,0 l/m NO 1,1 km/h (0 Bft)
13.12.2008 18:00 -3,1 C 91 % 1003,9 hPa 0,0 l/m N 1,2 km/h (1 Bft)
13.12.2008 19:00 -4,2 C 93 % 1003,5 hPa 0,0 l/m N-NW 4,4 km/h (1 Bft)
13.12.2008 20:00 -4,7 C 94 % 1003,3 hPa 0,0 l/m N 3,2 km/h (1 Bft)
13.12.2008 21:00 -5,0 C 95 % 1003,2 hPa 0,0 l/m N-NO 4,7 km/h (1 Bft)
13.12.2008 22:00 -5,1 C 96 % 1002,8 hPa 0,0 l/m NW 5,5 km/h (1 Bft)
13.12.2008 23:00 -4,9 C 96 % 1002,7 hPa 0,0 l/m N-NW 7,0 km/h (2 Bft)
14.12.2008 00:00 -4,8 C 97 % 1002,7 hPa 0,0 l/m N-NO 7,5 km/h (2 Bft)
14.12.2008 01:00 -4,7 C 96 % 1002,6 hPa 0,0 l/m N-NO 5,9 km/h (2 Bft)
14.12.2008 02:00 -4,6 C 97 % 1002,5 hPa 0,0 l/m N-NO 6,7 km/h (2 Bft)
14.12.2008 03:00 -4,6 C 96 % 1002,4 hPa 0,0 l/m N-NO 4,0 km/h (1 Bft)
14.12.2008 04:00 -4,5 C 96 % 1002,4 hPa 0,0 l/m N-NO 6,4 km/h (2 Bft)
14.12.2008 05:00 -4,1 C 97 % 1002,4 hPa 0,0 l/m NO 6,3 km/h (2 Bft)
14.12.2008 06:00 -3,7 C 98 % 1002,5 hPa 0,0 l/m O-NO 6,7 km/h (2 Bft)
14.12.2008 07:00 -3,5 C 98 % 1002,3 hPa 0,0 l/m NO 9,0 km/h (2 Bft)
14.12.2008 08:00 -3,4 C 98 % 1002,2 hPa 0,0 l/m NO 7,6 km/h (2 Bft)
14.12.2008 09:00 -3,2 C 98 % 1002,5 hPa 0,0 l/m N-NO 7,6 km/h (2 Bft)
14.12.2008 10:00 -2,7 C 97 % 1002,6 hPa 0,0 l/m NO 9,0 km/h (2 Bft)
14.12.2008 11:00 -2,0 C 96 % 1002,2 hPa 0,0 l/m NO 8,6 km/h (2 Bft)
14.12.2008 12:00 -1,0 C 94 % 1001,8 hPa 0,0 l/m NO 12,4 km/h (3 Bft)
14.12.2008 13:00 -0,8 C 94 % 1001,3 hPa 0,0 l/m O-NO 12,2 km/h (2 Bft)
14.12.2008 14:00 -0,6 C 94 % 1000,7 hPa 0,0 l/m N-NO 11,3 km/h (2 Bft)
14.12.2008 15:00 -0,8 C 94 % 1000,6 hPa 0,0 l/m N-NO 11,3 km/h (2 Bft)
14.12.2008 16:00 -1,4 C 96 % 1001,1 hPa 0,0 l/m N-NO 9,7 km/h (2 Bft)
14.12.2008 17:00 -1,4 C 97 % 1001,4 hPa 0,0 l/m N-NO 8,7 km/h (2 Bft)
14.12.2008 18:00 -1,4 C 98 % 1001,8 hPa 0,0 l/m N-NO 8,0 km/h (2 Bft)
14.12.2008 19:00 -1,4 C 98 % 1002,0 hPa 0,0 l/m N-NO 8,3 km/h (2 Bft)
14.12.2008 20:00 -1,4 C 98 % 1002,5 hPa 0,0 l/m N-NO 5,9 km/h (2 Bft)
14.12.2008 21:00 -1,6 C 98 % 1003,1 hPa 0,0 l/m N-NO 4,8 km/h (1 Bft)
14.12.2008 22:00 -2,0 C 97 % 1003,5 hPa 0,0 l/m N 6,0 km/h (2 Bft)
14.12.2008 23:00 -2,3 C 97 % 1003,9 hPa 0,0 l/m N-NW 6,0 km/h (2 Bft)
Min-Datum _ 13.12.08 12.12.08 14.12.08 - - 08.12.08
_ Min-Zeit 21:10 13:15 14:40 - - 00:00
Minimum _ -5,1 C 89 % 1000,5 hPa - - 0,0 km/h (0 Bft)
Max-Datum _ 09.12.08 08.12.08 08.12.08 09.12.08 - 09.12.08
_ Max-Zeit 22:00 11:00 00:10 22:00 - 21:25
Maximum _ 1,2 C 100 % 1029,0 hPa 2,6 l/m - 30,6 km/h
W-NW (5 Bft)
Durchschnitt _ -1,3 C 96 % 1013,4 hPa #17,0 l/m NO 5,5 km/h (1 Bft)